Terminal Aerodrome Forecast
Issued by NWS Louisville, KY

Home | Current Version | Previous Version | Text Only | Print | Product List | Glossary On
Versions: 1 2 3 4 5 6 7 8 9 10 11 12 13 14 15 16 17 18 19 20 21 22 23 24 25
000
FTUS43 KLMK 272300
TAFSDF
TAF
KSDF 272325Z 2800/2906 35008KT P6SM VCSH FEW035 SCT050 OVC060
     FM280200 33006KT P6SM SKC
     FM281500 01006KT P6SM SCT120
     FM290000 03003KT P6SM SKC=

USA.gov is the U.S. government's official web portal to all federal, state and local government web resources and services.